sensor_id;sensor_type;location;lat;lon;timestamp;P1;durP1;ratioP1;P2;durP2;ratioP2
13267;SDS011;6702;47.068;15.458;2023-04-25T00:01:35;5.67;;;5.10;;
13267;SDS011;6702;47.068;15.458;2023-04-25T00:04:41;6.17;;;5.67;;
13267;SDS011;6702;47.068;15.458;2023-04-25T00:07:45;6.10;;;5.50;;
13267;SDS011;6702;47.068;15.458;2023-04-25T00:10:49;5.70;;;5.20;;
13267;SDS011;6702;47.068;15.458;2023-04-25T00:13:52;6.33;;;5.83;;
13267;SDS011;6702;47.068;15.458;2023-04-25T00:16:58;5.53;;;5.13;;
13267;SDS011;6702;47.068;15.458;2023-04-25T00:20:02;6.00;;;5.50;;
13267;SDS011;6702;47.068;15.458;2023-04-25T00:23:10;5.57;;;5.10;;
13267;SDS011;6702;47.068;15.458;2023-04-25T00:26:14;7.83;;;5.43;;
13267;SDS011;6702;47.068;15.458;2023-04-25T00:29:18;5.13;;;4.57;;
13267;SDS011;6702;47.068;15.458;2023-04-25T00:32:22;5.87;;;5.40;;
13267;SDS011;6702;47.068;15.458;2023-04-25T00:35:25;6.13;;;5.67;;
13267;SDS011;6702;47.068;15.458;2023-04-25T00:38:28;5.37;;;4.97;;
13267;SDS011;6702;47.068;15.458;2023-04-25T00:41:33;6.60;;;6.10;;
13267;SDS011;6702;47.068;15.458;2023-04-25T00:44:36;11.13;;;6.20;;
13267;SDS011;6702;47.068;15.458;2023-04-25T00:47:40;6.10;;;5.60;;
13267;SDS011;6702;47.068;15.458;2023-04-25T00:50:44;6.33;;;5.83;;
13267;SDS011;6702;47.068;15.458;2023-04-25T00:53:53;6.97;;;5.53;;
13267;SDS011;6702;47.068;15.458;2023-04-25T00:57:00;7.87;;;6.10;;
13267;SDS011;6702;47.068;15.458;2023-04-25T01:00:05;6.03;;;5.53;;
13267;SDS011;6702;47.068;15.458;2023-04-25T01:03:12;7.03;;;5.73;;
13267;SDS011;6702;47.068;15.458;2023-04-25T01:06:17;7.37;;;6.77;;
13267;SDS011;6702;47.068;15.458;2023-04-25T01:09:21;6.27;;;5.80;;
13267;SDS011;6702;47.068;15.458;2023-04-25T01:12:26;6.60;;;6.10;;
13267;SDS011;6702;47.068;15.458;2023-04-25T01:15:29;6.93;;;6.33;;
13267;SDS011;6702;47.068;15.458;2023-04-25T01:18:32;6.00;;;5.50;;
13267;SDS011;6702;47.068;15.458;2023-04-25T01:21:37;6.60;;;6.00;;
13267;SDS011;6702;47.068;15.458;2023-04-25T01:24:41;6.67;;;6.07;;
13267;SDS011;6702;47.068;15.458;2023-04-25T01:27:44;6.77;;;6.27;;
13267;SDS011;6702;47.068;15.458;2023-04-25T01:30:48;6.37;;;5.77;;
13267;SDS011;6702;47.068;15.458;2023-04-25T01:33:52;6.53;;;5.93;;
13267;SDS011;6702;47.068;15.458;2023-04-25T01:36:57;7.27;;;6.00;;
13267;SDS011;6702;47.068;15.458;2023-04-25T01:40:02;6.37;;;5.83;;
13267;SDS011;6702;47.068;15.458;2023-04-25T01:43:07;5.20;;;4.80;;
13267;SDS011;6702;47.068;15.458;2023-04-25T01:46:12;6.47;;;5.93;;
13267;SDS011;6702;47.068;15.458;2023-04-25T01:49:15;6.07;;;5.57;;
13267;SDS011;6702;47.068;15.458;2023-04-25T01:52:20;46.97;;;7.13;;
13267;SDS011;6702;47.068;15.458;2023-04-25T01:55:23;5.90;;;5.00;;
13267;SDS011;6702;47.068;15.458;2023-04-25T01:58:26;5.40;;;4.90;;
13267;SDS011;6702;47.068;15.458;2023-04-25T02:01:29;6.10;;;5.17;;
13267;SDS011;6702;47.068;15.458;2023-04-25T02:04:32;5.57;;;5.10;;
13267;SDS011;6702;47.068;15.458;2023-04-25T02:07:37;10.53;;;4.67;;
13267;SDS011;6702;47.068;15.458;2023-04-25T02:10:40;8.63;;;4.47;;
13267;SDS011;6702;47.068;15.458;2023-04-25T02:13:43;4.80;;;4.40;;
13267;SDS011;6702;47.068;15.458;2023-04-25T02:16:47;5.67;;;5.07;;
13267;SDS011;6702;47.068;15.458;2023-04-25T02:19:52;5.70;;;5.30;;
13267;SDS011;6702;47.068;15.458;2023-04-25T02:22:57;3.87;;;3.57;;
13267;SDS011;6702;47.068;15.458;2023-04-25T02:26:00;5.30;;;3.90;;
13267;SDS011;6702;47.068;15.458;2023-04-25T02:29:03;3.47;;;3.17;;
13267;SDS011;6702;47.068;15.458;2023-04-25T02:32:07;4.60;;;4.00;;
13267;SDS011;6702;47.068;15.458;2023-04-25T02:35:10;3.10;;;2.90;;
13267;SDS011;6702;47.068;15.458;2023-04-25T02:38:14;4.93;;;3.27;;
13267;SDS011;6702;47.068;15.458;2023-04-25T02:41:17;4.30;;;2.73;;
13267;SDS011;6702;47.068;15.458;2023-04-25T02:44:22;3.47;;;3.17;;
13267;SDS011;6702;47.068;15.458;2023-04-25T02:47:25;4.80;;;2.97;;
13267;SDS011;6702;47.068;15.458;2023-04-25T02:50:28;4.40;;;2.63;;
13267;SDS011;6702;47.068;15.458;2023-04-25T02:53:33;3.67;;;2.60;;
13267;SDS011;6702;47.068;15.458;2023-04-25T02:56:36;4.87;;;2.97;;
13267;SDS011;6702;47.068;15.458;2023-04-25T02:59:39;3.77;;;3.40;;
13267;SDS011;6702;47.068;15.458;2023-04-25T03:02:42;3.10;;;2.80;;
13267;SDS011;6702;47.068;15.458;2023-04-25T03:05:45;3.73;;;3.40;;
13267;SDS011;6702;47.068;15.458;2023-04-25T03:08:50;3.13;;;2.90;;
13267;SDS011;6702;47.068;15.458;2023-04-25T03:11:53;3.13;;;2.90;;
13267;SDS011;6702;47.068;15.458;2023-04-25T03:14:56;3.77;;;2.63;;
13267;SDS011;6702;47.068;15.458;2023-04-25T03:17:59;3.17;;;2.40;;
13267;SDS011;6702;47.068;15.458;2023-04-25T03:21:02;4.73;;;2.93;;
13267;SDS011;6702;47.068;15.458;2023-04-25T03:24:07;4.40;;;3.13;;
13267;SDS011;6702;47.068;15.458;2023-04-25T03:27:12;3.53;;;3.20;;
13267;SDS011;6702;47.068;15.458;2023-04-25T03:30:15;4.73;;;3.37;;
13267;SDS011;6702;47.068;15.458;2023-04-25T03:33:18;3.47;;;3.17;;
13267;SDS011;6702;47.068;15.458;2023-04-25T03:36:21;30.93;;;8.50;;
13267;SDS011;6702;47.068;15.458;2023-04-25T03:39:26;6.00;;;5.50;;
13267;SDS011;6702;47.068;15.458;2023-04-25T03:42:29;8.77;;;3.90;;
13267;SDS011;6702;47.068;15.458;2023-04-25T03:45:32;3.53;;;2.73;;
13267;SDS011;6702;47.068;15.458;2023-04-25T03:48:35;3.27;;;3.07;;
13267;SDS011;6702;47.068;15.458;2023-04-25T03:51:38;5.10;;;4.33;;
13267;SDS011;6702;47.068;15.458;2023-04-25T03:54:43;4.30;;;3.90;;
13267;SDS011;6702;47.068;15.458;2023-04-25T03:57:46;5.60;;;4.10;;
13267;SDS011;6702;47.068;15.458;2023-04-25T04:00:49;6.67;;;3.93;;
13267;SDS011;6702;47.068;15.458;2023-04-25T04:03:52;7.17;;;3.63;;
13267;SDS011;6702;47.068;15.458;2023-04-25T04:06:56;6.30;;;3.17;;
13267;SDS011;6702;47.068;15.458;2023-04-25T04:10:01;5.17;;;3.80;;
13267;SDS011;6702;47.068;15.458;2023-04-25T04:13:04;4.03;;;3.60;;
13267;SDS011;6702;47.068;15.458;2023-04-25T04:16:10;4.97;;;4.37;;
13267;SDS011;6702;47.068;15.458;2023-04-25T04:19:14;5.67;;;4.50;;
13267;SDS011;6702;47.068;15.458;2023-04-25T04:22:17;5.23;;;4.53;;
13267;SDS011;6702;47.068;15.458;2023-04-25T04:25:21;6.57;;;5.97;;
13267;SDS011;6702;47.068;15.458;2023-04-25T04:28:25;7.43;;;5.00;;
13267;SDS011;6702;47.068;15.458;2023-04-25T04:31:29;8.90;;;5.00;;
13267;SDS011;6702;47.068;15.458;2023-04-25T04:34:34;8.50;;;5.10;;
13267;SDS011;6702;47.068;15.458;2023-04-25T04:37:37;5.37;;;4.90;;
13267;SDS011;6702;47.068;15.458;2023-04-25T04:40:42;5.47;;;4.60;;
13267;SDS011;6702;47.068;15.458;2023-04-25T04:43:45;7.10;;;5.40;;
13267;SDS011;6702;47.068;15.458;2023-04-25T04:46:48;6.03;;;4.73;;
13267;SDS011;6702;47.068;15.458;2023-04-25T04:49:52;6.20;;;4.53;;
13267;SDS011;6702;47.068;15.458;2023-04-25T04:52:55;7.93;;;4.20;;
13267;SDS011;6702;47.068;15.458;2023-04-25T04:55:59;7.37;;;5.23;;
13267;SDS011;6702;47.068;15.458;2023-04-25T04:59:03;7.43;;;5.63;;
13267;SDS011;6702;47.068;15.458;2023-04-25T05:02:06;5.30;;;4.67;;
13267;SDS011;6702;47.068;15.458;2023-04-25T05:05:09;7.40;;;4.77;;
13267;SDS011;6702;47.068;15.458;2023-04-25T05:08:12;9.27;;;5.20;;
13267;SDS011;6702;47.068;15.458;2023-04-25T05:11:17;9.50;;;4.60;;
13267;SDS011;6702;47.068;15.458;2023-04-25T05:14:20;5.97;;;4.33;;
13267;SDS011;6702;47.068;15.458;2023-04-25T05:17:24;4.80;;;4.20;;
13267;SDS011;6702;47.068;15.458;2023-04-25T05:20:27;5.40;;;4.27;;
13267;SDS011;6702;47.068;15.458;2023-04-25T05:23:30;6.23;;;4.03;;
13267;SDS011;6702;47.068;15.458;2023-04-25T05:26:36;5.23;;;4.77;;
13267;SDS011;6702;47.068;15.458;2023-04-25T05:29:40;6.97;;;3.80;;
13267;SDS011;6702;47.068;15.458;2023-04-25T05:32:43;12.07;;;4.93;;
13267;SDS011;6702;47.068;15.458;2023-04-25T05:35:48;6.30;;;4.33;;
13267;SDS011;6702;47.068;15.458;2023-04-25T05:38:51;6.67;;;3.97;;
13267;SDS011;6702;47.068;15.458;2023-04-25T05:41:56;4.60;;;4.20;;
13267;SDS011;6702;47.068;15.458;2023-04-25T05:44:59;5.13;;;4.50;;
13267;SDS011;6702;47.068;15.458;2023-04-25T05:48:02;6.77;;;3.70;;
13267;SDS011;6702;47.068;15.458;2023-04-25T05:51:05;5.77;;;4.20;;
13267;SDS011;6702;47.068;15.458;2023-04-25T05:54:08;6.63;;;5.10;;
13267;SDS011;6702;47.068;15.458;2023-04-25T05:57:19;5.10;;;3.70;;
13267;SDS011;6702;47.068;15.458;2023-04-25T06:00:23;4.50;;;4.07;;
13267;SDS011;6702;47.068;15.458;2023-04-25T06:03:26;8.30;;;3.73;;
13267;SDS011;6702;47.068;15.458;2023-04-25T06:06:30;6.67;;;4.20;;
13267;SDS011;6702;47.068;15.458;2023-04-25T06:09:33;5.23;;;3.80;;
13267;SDS011;6702;47.068;15.458;2023-04-25T06:12:38;4.43;;;4.00;;
13267;SDS011;6702;47.068;15.458;2023-04-25T06:15:41;5.37;;;4.87;;
13267;SDS011;6702;47.068;15.458;2023-04-25T06:18:44;6.33;;;5.10;;
13267;SDS011;6702;47.068;15.458;2023-04-25T06:21:48;5.87;;;5.30;;
13267;SDS011;6702;47.068;15.458;2023-04-25T06:24:51;10.50;;;6.07;;
13267;SDS011;6702;47.068;15.458;2023-04-25T06:27:56;6.60;;;6.00;;
13267;SDS011;6702;47.068;15.458;2023-04-25T06:30:59;6.97;;;6.10;;
13267;SDS011;6702;47.068;15.458;2023-04-25T06:34:02;5.70;;;5.17;;
13267;SDS011;6702;47.068;15.458;2023-04-25T06:37:05;7.37;;;6.00;;
13267;SDS011;6702;47.068;15.458;2023-04-25T06:40:08;10.03;;;5.70;;
13267;SDS011;6702;47.068;15.458;2023-04-25T06:43:13;7.10;;;6.50;;
13267;SDS011;6702;47.068;15.458;2023-04-25T06:46:16;6.43;;;5.77;;
13267;SDS011;6702;47.068;15.458;2023-04-25T06:49:20;6.93;;;6.33;;
13267;SDS011;6702;47.068;15.458;2023-04-25T06:52:23;7.43;;;6.60;;
13267;SDS011;6702;47.068;15.458;2023-04-25T06:55:26;7.37;;;6.50;;
13267;SDS011;6702;47.068;15.458;2023-04-25T06:58:31;8.00;;;7.13;;
13267;SDS011;6702;47.068;15.458;2023-04-25T07:01:34;6.27;;;5.73;;
13267;SDS011;6702;47.068;15.458;2023-04-25T07:04:37;6.70;;;6.13;;
13267;SDS011;6702;47.068;15.458;2023-04-25T07:07:41;5.40;;;5.00;;
13267;SDS011;6702;47.068;15.458;2023-04-25T07:10:44;5.90;;;5.50;;
13267;SDS011;6702;47.068;15.458;2023-04-25T07:13:51;14.70;;;10.50;;
13267;SDS011;6702;47.068;15.458;2023-04-25T07:16:55;19.63;;;17.57;;
13267;SDS011;6702;47.068;15.458;2023-04-25T07:19:58;6.77;;;5.70;;
13267;SDS011;6702;47.068;15.458;2023-04-25T07:23:01;11.60;;;10.50;;
13267;SDS011;6702;47.068;15.458;2023-04-25T07:26:04;17.80;;;16.13;;
13267;SDS011;6702;47.068;15.458;2023-04-25T07:29:09;11.57;;;10.52;;
13267;SDS011;6702;47.068;15.458;2023-04-25T07:32:15;10.70;;;8.73;;
13267;SDS011;6702;47.068;15.458;2023-04-25T07:35:18;6.35;;;5.90;;
13267;SDS011;6702;47.068;15.458;2023-04-25T07:38:24;4.47;;;4.18;;
13267;SDS011;6702;47.068;15.458;2023-04-25T07:41:27;3.97;;;3.58;;
13267;SDS011;6702;47.068;15.458;2023-04-25T07:44:32;2.58;;;2.38;;
13267;SDS011;6702;47.068;15.458;2023-04-25T07:47:39;4.10;;;3.70;;
13267;SDS011;6702;47.068;15.458;2023-04-25T07:50:42;12.88;;;11.75;;
13267;SDS011;6702;47.068;15.458;2023-04-25T07:53:45;3.90;;;3.63;;
13267;SDS011;6702;47.068;15.458;2023-04-25T07:56:51;4.50;;;4.20;;
13267;SDS011;6702;47.068;15.458;2023-04-25T07:59:55;3.72;;;3.15;;
13267;SDS011;6702;47.068;15.458;2023-04-25T08:02:58;1.95;;;1.80;;
13267;SDS011;6702;47.068;15.458;2023-04-25T08:06:02;2.72;;;2.53;;
13267;SDS011;6702;47.068;15.458;2023-04-25T08:09:08;2.53;;;2.33;;
13267;SDS011;6702;47.068;15.458;2023-04-25T08:12:12;1.73;;;1.63;;
13267;SDS011;6702;47.068;15.458;2023-04-25T08:15:16;2.17;;;2.08;;
13267;SDS011;6702;47.068;15.458;2023-04-25T08:18:19;5.20;;;4.80;;
13267;SDS011;6702;47.068;15.458;2023-04-25T08:21:23;2.70;;;2.42;;
13267;SDS011;6702;47.068;15.458;2023-04-25T08:24:26;1.98;;;1.88;;
13267;SDS011;6702;47.068;15.458;2023-04-25T08:27:30;1.92;;;1.83;;
13267;SDS011;6702;47.068;15.458;2023-04-25T08:30:34;4.43;;;1.77;;
13267;SDS011;6702;47.068;15.458;2023-04-25T08:33:37;2.35;;;2.03;;
13267;SDS011;6702;47.068;15.458;2023-04-25T08:36:40;2.00;;;1.73;;
13267;SDS011;6702;47.068;15.458;2023-04-25T08:39:43;1.88;;;1.55;;
13267;SDS011;6702;47.068;15.458;2023-04-25T08:42:48;1.55;;;1.23;;
13267;SDS011;6702;47.068;15.458;2023-04-25T08:45:54;2.00;;;1.60;;
13267;SDS011;6702;47.068;15.458;2023-04-25T08:49:01;2.50;;;1.77;;
13267;SDS011;6702;47.068;15.458;2023-04-25T08:52:04;1.70;;;1.53;;
13267;SDS011;6702;47.068;15.458;2023-04-25T08:55:09;3.00;;;2.10;;
13267;SDS011;6702;47.068;15.458;2023-04-25T08:58:14;3.70;;;2.00;;
13267;SDS011;6702;47.068;15.458;2023-04-25T09:01:19;1.83;;;1.73;;
13267;SDS011;6702;47.068;15.458;2023-04-25T09:04:23;2.47;;;1.85;;
13267;SDS011;6702;47.068;15.458;2023-04-25T09:07:27;1.47;;;1.37;;
13267;SDS011;6702;47.068;15.458;2023-04-25T09:10:30;2.77;;;1.40;;
13267;SDS011;6702;47.068;15.458;2023-04-25T09:13:33;1.60;;;1.30;;
13267;SDS011;6702;47.068;15.458;2023-04-25T09:16:38;2.53;;;1.47;;
13267;SDS011;6702;47.068;15.458;2023-04-25T09:20:07;1.20;;;1.10;;
13267;SDS011;6702;47.068;15.458;2023-04-25T09:23:14;1.63;;;1.30;;
13267;SDS011;6702;47.068;15.458;2023-04-25T09:26:17;2.03;;;1.80;;
13267;SDS011;6702;47.068;15.458;2023-04-25T09:29:26;3.27;;;2.00;;
13267;SDS011;6702;47.068;15.458;2023-04-25T09:32:33;1.57;;;1.47;;
13267;SDS011;6702;47.068;15.458;2023-04-25T09:35:39;2.00;;;1.43;;
13267;SDS011;6702;47.068;15.458;2023-04-25T09:38:43;1.33;;;1.23;;
13267;SDS011;6702;47.068;15.458;2023-04-25T09:41:48;1.40;;;1.30;;
13267;SDS011;6702;47.068;15.458;2023-04-25T09:44:56;1.40;;;1.30;;
13267;SDS011;6702;47.068;15.458;2023-04-25T09:48:04;2.10;;;1.67;;
13267;SDS011;6702;47.068;15.458;2023-04-25T09:51:08;2.63;;;1.60;;
13267;SDS011;6702;47.068;15.458;2023-04-25T09:54:14;1.20;;;1.10;;
13267;SDS011;6702;47.068;15.458;2023-04-25T09:57:18;1.53;;;1.43;;
13267;SDS011;6702;47.068;15.458;2023-04-25T10:00:22;1.60;;;1.40;;
13267;SDS011;6702;47.068;15.458;2023-04-25T10:03:26;2.30;;;1.20;;
13267;SDS011;6702;47.068;15.458;2023-04-25T10:06:32;2.23;;;1.60;;
13267;SDS011;6702;47.068;15.458;2023-04-25T10:09:38;2.37;;;1.53;;
13267;SDS011;6702;47.068;15.458;2023-04-25T10:12:42;1.50;;;1.33;;
13267;SDS011;6702;47.068;15.458;2023-04-25T10:15:46;12.77;;;8.23;;
13267;SDS011;6702;47.068;15.458;2023-04-25T10:18:51;2.00;;;1.90;;
13267;SDS011;6702;47.068;15.458;2023-04-25T10:21:56;1.73;;;1.63;;
13267;SDS011;6702;47.068;15.458;2023-04-25T10:25:06;2.60;;;1.17;;
13267;SDS011;6702;47.068;15.458;2023-04-25T10:28:10;3.53;;;1.70;;
13267;SDS011;6702;47.068;15.458;2023-04-25T10:31:13;2.53;;;1.90;;
13267;SDS011;6702;47.068;15.458;2023-04-25T10:34:23;2.70;;;2.10;;
13267;SDS011;6702;47.068;15.458;2023-04-25T10:37:27;1.93;;;1.60;;
13267;SDS011;6702;47.068;15.458;2023-04-25T10:40:32;2.30;;;1.17;;
13267;SDS011;6702;47.068;15.458;2023-04-25T10:43:36;1.53;;;1.43;;
13267;SDS011;6702;47.068;15.458;2023-04-25T10:46:41;2.20;;;1.80;;
13267;SDS011;6702;47.068;15.458;2023-04-25T10:49:45;2.43;;;1.80;;
13267;SDS011;6702;47.068;15.458;2023-04-25T10:52:53;2.00;;;1.73;;
13267;SDS011;6702;47.068;15.458;2023-04-25T10:55:56;1.33;;;1.23;;
13267;SDS011;6702;47.068;15.458;2023-04-25T10:59:03;2.17;;;1.40;;
13267;SDS011;6702;47.068;15.458;2023-04-25T11:02:11;4.80;;;1.50;;
13267;SDS011;6702;47.068;15.458;2023-04-25T11:05:18;1.50;;;1.40;;
13267;SDS011;6702;47.068;15.458;2023-04-25T11:08:28;2.03;;;1.10;;
13267;SDS011;6702;47.068;15.458;2023-04-25T11:11:53;3.40;;;1.33;;
13267;SDS011;6702;47.068;15.458;2023-04-25T11:15:00;2.27;;;1.40;;
13267;SDS011;6702;47.068;15.458;2023-04-25T11:18:04;1.97;;;1.73;;
13267;SDS011;6702;47.068;15.458;2023-04-25T11:21:11;3.13;;;1.30;;
13267;SDS011;6702;47.068;15.458;2023-04-25T11:24:16;2.70;;;2.10;;
13267;SDS011;6702;47.068;15.458;2023-04-25T11:27:19;1.27;;;0.90;;
13267;SDS011;6702;47.068;15.458;2023-04-25T11:30:26;2.00;;;1.00;;
13267;SDS011;6702;47.068;15.458;2023-04-25T11:33:30;2.43;;;1.80;;
13267;SDS011;6702;47.068;15.458;2023-04-25T11:36:34;2.13;;;1.30;;
13267;SDS011;6702;47.068;15.458;2023-04-25T11:39:42;2.20;;;1.20;;
13267;SDS011;6702;47.068;15.458;2023-04-25T11:42:48;1.63;;;1.07;;
13267;SDS011;6702;47.068;15.458;2023-04-25T11:45:55;1.10;;;0.83;;
13267;SDS011;6702;47.068;15.458;2023-04-25T11:48:58;1.03;;;0.93;;
13267;SDS011;6702;47.068;15.458;2023-04-25T11:52:05;1.87;;;1.13;;
13267;SDS011;6702;47.068;15.458;2023-04-25T11:55:10;1.17;;;1.00;;
13267;SDS011;6702;47.068;15.458;2023-04-25T11:58:15;1.47;;;1.20;;
13267;SDS011;6702;47.068;15.458;2023-04-25T12:01:24;2.07;;;1.00;;
13267;SDS011;6702;47.068;15.458;2023-04-25T12:04:33;4.10;;;1.23;;
13267;SDS011;6702;47.068;15.458;2023-04-25T12:07:39;1.50;;;0.90;;
13267;SDS011;6702;47.068;15.458;2023-04-25T12:10:44;2.40;;;0.90;;
13267;SDS011;6702;47.068;15.458;2023-04-25T12:13:51;1.60;;;1.40;;
13267;SDS011;6702;47.068;15.458;2023-04-25T12:16:55;1.83;;;1.20;;
13267;SDS011;6702;47.068;15.458;2023-04-25T12:19:59;2.23;;;1.00;;
13267;SDS011;6702;47.068;15.458;2023-04-25T12:23:10;5.30;;;1.00;;
13267;SDS011;6702;47.068;15.458;2023-04-25T12:26:13;1.47;;;1.00;;
13267;SDS011;6702;47.068;15.458;2023-04-25T12:29:19;1.20;;;0.90;;
13267;SDS011;6702;47.068;15.458;2023-04-25T12:32:23;1.57;;;1.30;;
13267;SDS011;6702;47.068;15.458;2023-04-25T12:35:27;1.43;;;1.20;;
13267;SDS011;6702;47.068;15.458;2023-04-25T12:38:31;2.10;;;1.07;;
13267;SDS011;6702;47.068;15.458;2023-04-25T12:41:39;2.33;;;1.33;;
13267;SDS011;6702;47.068;15.458;2023-04-25T12:44:42;1.10;;;1.00;;
13267;SDS011;6702;47.068;15.458;2023-04-25T12:47:45;2.33;;;1.20;;
13267;SDS011;6702;47.068;15.458;2023-04-25T12:50:48;1.63;;;1.30;;
13267;SDS011;6702;47.068;15.458;2023-04-25T12:53:54;1.53;;;1.20;;
13267;SDS011;6702;47.068;15.458;2023-04-25T12:56:57;1.63;;;1.53;;
13267;SDS011;6702;47.068;15.458;2023-04-25T13:00:00;1.23;;;1.00;;
13267;SDS011;6702;47.068;15.458;2023-04-25T13:03:05;2.17;;;1.13;;
13267;SDS011;6702;47.068;15.458;2023-04-25T13:06:09;1.53;;;1.03;;
13267;SDS011;6702;47.068;15.458;2023-04-25T13:09:13;5.10;;;1.10;;
13267;SDS011;6702;47.068;15.458;2023-04-25T13:12:17;2.20;;;1.17;;
13267;SDS011;6702;47.068;15.458;2023-04-25T13:15:20;1.53;;;1.37;;
13267;SDS011;6702;47.068;15.458;2023-04-25T13:18:23;2.33;;;1.27;;
13267;SDS011;6702;47.068;15.458;2023-04-25T13:21:29;1.93;;;1.10;;
13267;SDS011;6702;47.068;15.458;2023-04-25T13:24:34;2.00;;;1.83;;
13267;SDS011;6702;47.068;15.458;2023-04-25T13:27:37;1.10;;;1.00;;
13267;SDS011;6702;47.068;15.458;2023-04-25T13:30:42;1.37;;;1.10;;
13267;SDS011;6702;47.068;15.458;2023-04-25T13:33:45;1.88;;;1.10;;
13267;SDS011;6702;47.068;15.458;2023-04-25T13:36:48;1.10;;;1.00;;
13267;SDS011;6702;47.068;15.458;2023-04-25T13:39:53;1.00;;;0.90;;
13267;SDS011;6702;47.068;15.458;2023-04-25T13:42:59;1.33;;;1.20;;
13267;SDS011;6702;47.068;15.458;2023-04-25T13:46:02;1.10;;;1.00;;
13267;SDS011;6702;47.068;15.458;2023-04-25T13:49:05;3.33;;;1.37;;
13267;SDS011;6702;47.068;15.458;2023-04-25T13:52:13;3.10;;;1.27;;
13267;SDS011;6702;47.068;15.458;2023-04-25T13:55:18;1.07;;;0.87;;
13267;SDS011;6702;47.068;15.458;2023-04-25T13:58:21;1.60;;;1.50;;
13267;SDS011;6702;47.068;15.458;2023-04-25T14:01:24;2.53;;;1.43;;
13267;SDS011;6702;47.068;15.458;2023-04-25T14:04:29;3.40;;;1.17;;
13267;SDS011;6702;47.068;15.458;2023-04-25T14:07:32;2.00;;;1.43;;
13267;SDS011;6702;47.068;15.458;2023-04-25T14:10:37;1.87;;;1.23;;
13267;SDS011;6702;47.068;15.458;2023-04-25T14:13:40;1.00;;;1.00;;
13267;SDS011;6702;47.068;15.458;2023-04-25T14:16:43;1.40;;;1.30;;
13267;SDS011;6702;47.068;15.458;2023-04-25T14:19:47;1.43;;;1.13;;
13267;SDS011;6702;47.068;15.458;2023-04-25T14:22:50;3.10;;;1.00;;
13267;SDS011;6702;47.068;15.458;2023-04-25T14:25:57;2.00;;;1.53;;
13267;SDS011;6702;47.068;15.458;2023-04-25T14:29:00;1.50;;;1.20;;
13267;SDS011;6702;47.068;15.458;2023-04-25T14:32:03;1.20;;;1.10;;
13267;SDS011;6702;47.068;15.458;2023-04-25T14:35:08;1.53;;;1.43;;
13267;SDS011;6702;47.068;15.458;2023-04-25T14:38:11;2.80;;;1.30;;
13267;SDS011;6702;47.068;15.458;2023-04-25T14:41:16;2.10;;;1.00;;
13267;SDS011;6702;47.068;15.458;2023-04-25T14:44:19;1.53;;;1.27;;
13267;SDS011;6702;47.068;15.458;2023-04-25T14:47:23;1.20;;;1.10;;
13267;SDS011;6702;47.068;15.458;2023-04-25T14:50:29;1.60;;;1.27;;
13267;SDS011;6702;47.068;15.458;2023-04-25T14:53:32;1.30;;;1.10;;
13267;SDS011;6702;47.068;15.458;2023-04-25T14:56:37;1.50;;;1.30;;
13267;SDS011;6702;47.068;15.458;2023-04-25T14:59:40;1.23;;;0.87;;
13267;SDS011;6702;47.068;15.458;2023-04-25T15:02:43;2.60;;;1.10;;
13267;SDS011;6702;47.068;15.458;2023-04-25T15:05:46;0.93;;;0.80;;
13267;SDS011;6702;47.068;15.458;2023-04-25T15:08:50;3.00;;;1.80;;
13267;SDS011;6702;47.068;15.458;2023-04-25T15:11:54;1.80;;;0.90;;
13267;SDS011;6702;47.068;15.458;2023-04-25T15:14:57;2.10;;;1.90;;
13267;SDS011;6702;47.068;15.458;2023-04-25T15:18:01;1.87;;;1.37;;
13267;SDS011;6702;47.068;15.458;2023-04-25T15:21:04;2.13;;;1.03;;
13267;SDS011;6702;47.068;15.458;2023-04-25T15:24:08;2.07;;;1.00;;
13267;SDS011;6702;47.068;15.458;2023-04-25T15:27:13;1.53;;;1.10;;
13267;SDS011;6702;47.068;15.458;2023-04-25T15:30:17;1.60;;;1.13;;
13267;SDS011;6702;47.068;15.458;2023-04-25T15:33:21;1.70;;;0.60;;
13267;SDS011;6702;47.068;15.458;2023-04-25T15:36:24;1.10;;;1.00;;
13267;SDS011;6702;47.068;15.458;2023-04-25T15:39:27;3.73;;;1.07;;
13267;SDS011;6702;47.068;15.458;2023-04-25T15:42:31;1.00;;;0.70;;
13267;SDS011;6702;47.068;15.458;2023-04-25T15:45:35;1.00;;;0.80;;
13267;SDS011;6702;47.068;15.458;2023-04-25T15:48:38;0.70;;;0.57;;
13267;SDS011;6702;47.068;15.458;2023-04-25T15:51:41;0.93;;;0.70;;
13267;SDS011;6702;47.068;15.458;2023-04-25T15:54:44;1.90;;;1.33;;
13267;SDS011;6702;47.068;15.458;2023-04-25T15:57:49;1.00;;;0.80;;
13267;SDS011;6702;47.068;15.458;2023-04-25T16:00:52;1.03;;;0.83;;
13267;SDS011;6702;47.068;15.458;2023-04-25T16:03:56;2.20;;;1.03;;
13267;SDS011;6702;47.068;15.458;2023-04-25T16:07:00;1.17;;;0.70;;
13267;SDS011;6702;47.068;15.458;2023-04-25T16:10:04;1.27;;;0.60;;
13267;SDS011;6702;47.068;15.458;2023-04-25T16:13:09;1.20;;;0.80;;
13267;SDS011;6702;47.068;15.458;2023-04-25T16:16:13;0.93;;;0.73;;
13267;SDS011;6702;47.068;15.458;2023-04-25T16:19:17;0.73;;;0.70;;
13267;SDS011;6702;47.068;15.458;2023-04-25T16:22:20;1.40;;;0.87;;
13267;SDS011;6702;47.068;15.458;2023-04-25T16:25:23;1.13;;;1.03;;
13267;SDS011;6702;47.068;15.458;2023-04-25T16:28:28;1.40;;;0.90;;
13267;SDS011;6702;47.068;15.458;2023-04-25T16:31:32;2.13;;;1.97;;
13267;SDS011;6702;47.068;15.458;2023-04-25T16:34:36;1.57;;;0.93;;
13267;SDS011;6702;47.068;15.458;2023-04-25T16:37:40;1.43;;;0.80;;
13267;SDS011;6702;47.068;15.458;2023-04-25T16:40:43;0.70;;;0.67;;
13267;SDS011;6702;47.068;15.458;2023-04-25T16:43:47;0.83;;;0.83;;
13267;SDS011;6702;47.068;15.458;2023-04-25T16:46:51;0.80;;;0.70;;
13267;SDS011;6702;47.068;15.458;2023-04-25T16:49:54;1.50;;;0.87;;
13267;SDS011;6702;47.068;15.458;2023-04-25T16:52:57;0.97;;;0.80;;
13267;SDS011;6702;47.068;15.458;2023-04-25T16:56:01;0.73;;;0.73;;
13267;SDS011;6702;47.068;15.458;2023-04-25T16:59:06;3.80;;;0.90;;
13267;SDS011;6702;47.068;15.458;2023-04-25T17:02:09;0.90;;;0.80;;
13267;SDS011;6702;47.068;15.458;2023-04-25T17:05:18;3.97;;;0.90;;
13267;SDS011;6702;47.068;15.458;2023-04-25T17:08:22;0.70;;;0.60;;
13267;SDS011;6702;47.068;15.458;2023-04-25T17:11:25;1.13;;;1.00;;
13267;SDS011;6702;47.068;15.458;2023-04-25T17:14:31;0.83;;;0.83;;
13267;SDS011;6702;47.068;15.458;2023-04-25T17:17:36;1.00;;;0.90;;
13267;SDS011;6702;47.068;15.458;2023-04-25T17:20:40;2.13;;;0.80;;
13267;SDS011;6702;47.068;15.458;2023-04-25T17:23:43;1.43;;;0.90;;
13267;SDS011;6702;47.068;15.458;2023-04-25T17:26:46;2.90;;;1.07;;
13267;SDS011;6702;47.068;15.458;2023-04-25T17:29:52;1.83;;;0.90;;
13267;SDS011;6702;47.068;15.458;2023-04-25T17:32:57;0.90;;;0.60;;
13267;SDS011;6702;47.068;15.458;2023-04-25T17:36:00;1.47;;;0.77;;
13267;SDS011;6702;47.068;15.458;2023-04-25T17:39:05;1.03;;;0.80;;
13267;SDS011;6702;47.068;15.458;2023-04-25T17:42:12;0.60;;;0.60;;
13267;SDS011;6702;47.068;15.458;2023-04-25T17:45:18;1.17;;;0.73;;
13267;SDS011;6702;47.068;15.458;2023-04-25T17:48:22;0.90;;;0.80;;
13267;SDS011;6702;47.068;15.458;2023-04-25T17:51:27;0.97;;;0.73;;
13267;SDS011;6702;47.068;15.458;2023-04-25T17:54:31;1.13;;;0.60;;
13267;SDS011;6702;47.068;15.458;2023-04-25T17:57:36;0.80;;;0.70;;
13267;SDS011;6702;47.068;15.458;2023-04-25T18:00:42;0.80;;;0.60;;
13267;SDS011;6702;47.068;15.458;2023-04-25T18:03:45;1.50;;;1.00;;
13267;SDS011;6702;47.068;15.458;2023-04-25T18:06:54;1.53;;;0.90;;
13267;SDS011;6702;47.068;15.458;2023-04-25T18:09:58;2.00;;;1.07;;
13267;SDS011;6702;47.068;15.458;2023-04-25T18:13:01;0.70;;;0.70;;
13267;SDS011;6702;47.068;15.458;2023-04-25T18:16:07;1.27;;;0.73;;
13267;SDS011;6702;47.068;15.458;2023-04-25T18:19:11;0.80;;;0.70;;
13267;SDS011;6702;47.068;15.458;2023-04-25T18:22:17;1.33;;;0.83;;
13267;SDS011;6702;47.068;15.458;2023-04-25T18:25:20;0.80;;;0.80;;
13267;SDS011;6702;47.068;15.458;2023-04-25T18:28:24;0.70;;;0.70;;
13267;SDS011;6702;47.068;15.458;2023-04-25T18:31:29;1.47;;;1.00;;